sensor_id;sensor_type;location;lat;lon;timestamp;pressure;altitude;pressure_sealevel;temperature;humidity
76424;BME280;65257;52.104;4.268;2023-02-01T00:01:41;102020.25;;;7.26;73.92
76424;BME280;65257;52.104;4.268;2023-02-01T00:04:06;102022.28;;;7.19;74.27
76424;BME280;65257;52.104;4.268;2023-02-01T00:06:36;102022.28;;;7.19;73.69
76424;BME280;65257;52.104;4.268;2023-02-01T00:09:12;102014.53;;;7.17;74.11
76424;BME280;65257;52.104;4.268;2023-02-01T00:11:38;102017.88;;;7.16;73.98
76424;BME280;65257;52.104;4.268;2023-02-01T00:14:03;102020.50;;;7.18;73.84
76424;BME280;65257;52.104;4.268;2023-02-01T00:16:30;102033.81;;;7.14;74.42
76424;BME280;65257;52.104;4.268;2023-02-01T00:18:59;102044.31;;;7.18;74.35
76424;BME280;65257;52.104;4.268;2023-02-01T00:21:25;102024.47;;;7.26;74.00
76424;BME280;65257;52.104;4.268;2023-02-01T00:23:54;102024.25;;;7.23;74.58
76424;BME280;65257;52.104;4.268;2023-02-01T00:26:41;102023.81;;;7.17;74.07
76424;BME280;65257;52.104;4.268;2023-02-01T00:29:11;102024.03;;;7.20;73.64
76424;BME280;65257;52.104;4.268;2023-02-01T00:31:37;102011.44;;;7.21;73.85
76424;BME280;65257;52.104;4.268;2023-02-01T00:34:03;102018.06;;;7.19;74.06
76424;BME280;65257;52.104;4.268;2023-02-01T00:36:28;102017.38;;;7.22;73.76
76424;BME280;65257;52.104;4.268;2023-02-01T00:38:54;102008.75;;;7.20;73.83
76424;BME280;65257;52.104;4.268;2023-02-01T00:41:21;102020.13;;;7.25;74.37
76424;BME280;65257;52.104;4.268;2023-02-01T00:43:48;102006.50;;;7.24;73.91
76424;BME280;65257;52.104;4.268;2023-02-01T00:46:16;102015.63;;;7.21;75.12
76424;BME280;65257;52.104;4.268;2023-02-01T00:48:41;102001.94;;;7.19;75.27
76424;BME280;65257;52.104;4.268;2023-02-01T00:51:16;101991.31;;;7.13;75.04
76424;BME280;65257;52.104;4.268;2023-02-01T00:53:43;101986.44;;;7.16;75.43
76424;BME280;65257;52.104;4.268;2023-02-01T00:56:09;101989.97;;;7.18;75.88
76424;BME280;65257;52.104;4.268;2023-02-01T00:58:35;101986.66;;;7.19;75.46
76424;BME280;65257;52.104;4.268;2023-02-01T01:03:27;101992.72;;;7.21;75.85
76424;BME280;65257;52.104;4.268;2023-02-01T01:05:56;101991.91;;;7.22;76.80
76424;BME280;65257;52.104;4.268;2023-02-01T01:08:22;101996.84;;;7.19;76.44
76424;BME280;65257;52.104;4.268;2023-02-01T01:10:48;101992.59;;;7.19;76.57
76424;BME280;65257;52.104;4.268;2023-02-01T01:13:15;101982.84;;;7.25;76.72
76424;BME280;65257;52.104;4.268;2023-02-01T01:15:40;101993.69;;;7.23;76.50
76424;BME280;65257;52.104;4.268;2023-02-01T01:18:07;101992.72;;;7.21;76.99
76424;BME280;65257;52.104;4.268;2023-02-01T01:20:37;101989.19;;;7.19;77.05
76424;BME280;65257;52.104;4.268;2023-02-01T01:23:03;101997.38;;;7.15;77.09
76424;BME280;65257;52.104;4.268;2023-02-01T01:25:28;102000.91;;;7.17;76.64
76424;BME280;65257;52.104;4.268;2023-02-01T01:27:54;101996.63;;;7.16;77.06
76424;BME280;65257;52.104;4.268;2023-02-01T01:30:20;101986.66;;;7.19;76.48
76424;BME280;65257;52.104;4.268;2023-02-01T01:32:45;101999.94;;;7.15;77.02
76424;BME280;65257;52.104;4.268;2023-02-01T01:35:11;102001.50;;;7.13;77.20
76424;BME280;65257;52.104;4.268;2023-02-01T01:37:37;102001.94;;;7.19;77.26
76424;BME280;65257;52.104;4.268;2023-02-01T01:40:07;102000.16;;;7.18;76.78
76424;BME280;65257;52.104;4.268;2023-02-01T01:42:39;101985.84;;;7.20;77.05
76424;BME280;65257;52.104;4.268;2023-02-01T01:45:06;101991.75;;;7.19;76.24
76424;BME280;65257;52.104;4.268;2023-02-01T01:47:52;101985.84;;;7.20;76.50
76424;BME280;65257;52.104;4.268;2023-02-01T01:50:22;101979.31;;;7.23;76.38
76424;BME280;65257;52.104;4.268;2023-02-01T01:52:50;101986.28;;;7.26;76.05
76424;BME280;65257;52.104;4.268;2023-02-01T01:55:18;101991.25;;;7.24;76.11
76424;BME280;65257;52.104;4.268;2023-02-01T01:57:49;101975.81;;;7.21;76.01
76424;BME280;65257;52.104;4.268;2023-02-01T02:00:18;101972.38;;;7.21;76.24
76424;BME280;65257;52.104;4.268;2023-02-01T02:02:48;101967.28;;;7.21;76.12
76424;BME280;65257;52.104;4.268;2023-02-01T02:05:17;101974.78;;;7.19;75.41
76424;BME280;65257;52.104;4.268;2023-02-01T02:07:48;101971.56;;;7.22;75.36
76424;BME280;65257;52.104;4.268;2023-02-01T02:10:15;101971.56;;;7.22;76.46
76424;BME280;65257;52.104;4.268;2023-02-01T02:12:43;101956.97;;;7.19;75.86
76424;BME280;65257;52.104;4.268;2023-02-01T02:15:12;101954.56;;;7.21;76.32
76424;BME280;65257;52.104;4.268;2023-02-01T02:18:00;101957.88;;;7.20;75.98
76424;BME280;65257;52.104;4.268;2023-02-01T02:28:55;101960.41;;;7.20;77.03
76424;BME280;65257;52.104;4.268;2023-02-01T02:31:59;101953.06;;;7.24;76.42
76424;BME280;65257;52.104;4.268;2023-02-01T02:34:40;101959.63;;;7.21;77.28
76424;BME280;65257;52.104;4.268;2023-02-01T02:40:03;101956.13;;;7.19;77.24
76424;BME280;65257;52.104;4.268;2023-02-01T02:42:52;101958.06;;;7.23;76.90
76424;BME280;65257;52.104;4.268;2023-02-01T02:45:46;101946.13;;;7.22;77.15
76424;BME280;65257;52.104;4.268;2023-02-01T02:48:42;101940.84;;;7.19;77.24
76424;BME280;65257;52.104;4.268;2023-02-01T02:51:38;101949.03;;;7.15;76.46
76424;BME280;65257;52.104;4.268;2023-02-01T02:54:30;101930.66;;;7.19;76.81
76424;BME280;65257;52.104;4.268;2023-02-01T02:57:25;101900.81;;;7.16;76.46
76424;BME280;65257;52.104;4.268;2023-02-01T03:00:12;101918.28;;;7.12;77.22
76424;BME280;65257;52.104;4.268;2023-02-01T03:02:59;101919.66;;;7.07;76.83
76424;BME280;65257;52.104;4.268;2023-02-01T03:05:46;101915.25;;;7.04;76.79
76424;BME280;65257;52.104;4.268;2023-02-01T03:08:31;101922.78;;;7.03;77.07
76424;BME280;65257;52.104;4.268;2023-02-01T03:11:09;101926.22;;;7.03;76.84
76424;BME280;65257;52.104;4.268;2023-02-01T03:13:39;101927.19;;;7.05;76.51
76424;BME280;65257;52.104;4.268;2023-02-01T03:16:36;101922.88;;;7.04;76.60
76424;BME280;65257;52.104;4.268;2023-02-01T03:22:05;101930.97;;;6.99;77.56
76424;BME280;65257;52.104;4.268;2023-02-01T03:24:38;101938.06;;;7.03;76.94
76424;BME280;65257;52.104;4.268;2023-02-01T03:27:14;101916.91;;;7.04;77.30
76424;BME280;65257;52.104;4.268;2023-02-01T03:29:48;101932.16;;;7.04;77.39
76424;BME280;65257;52.104;4.268;2023-02-01T03:32:15;101924.38;;;7.01;76.47
76424;BME280;65257;52.104;4.268;2023-02-01T03:34:42;101919.06;;;6.98;76.41
76424;BME280;65257;52.104;4.268;2023-02-01T03:37:13;101925.91;;;6.99;76.40
76424;BME280;65257;52.104;4.268;2023-02-01T03:40:06;101916.53;;;6.98;76.49
76424;BME280;65257;52.104;4.268;2023-02-01T03:42:42;101911.53;;;6.99;77.45
76424;BME280;65257;52.104;4.268;2023-02-01T03:47:42;101907.13;;;6.97;76.49
76424;BME280;65257;52.104;4.268;2023-02-01T03:50:13;101899.69;;;7.00;76.23
76424;BME280;65257;52.104;4.268;2023-02-01T03:52:46;101909.28;;;7.04;75.88
76424;BME280;65257;52.104;4.268;2023-02-01T03:55:15;101902.22;;;7.00;76.42
76424;BME280;65257;52.104;4.268;2023-02-01T03:57:45;101902.22;;;7.00;76.51
76424;BME280;65257;52.104;4.268;2023-02-01T04:00:24;101909.28;;;7.04;75.45
76424;BME280;65257;52.104;4.268;2023-02-01T04:02:50;101923.09;;;7.07;75.54
76424;BME280;65257;52.104;4.268;2023-02-01T04:05:16;101908.59;;;7.06;75.39
76424;BME280;65257;52.104;4.268;2023-02-01T04:07:42;101924.88;;;7.08;76.08
76424;BME280;65257;52.104;4.268;2023-02-01T04:10:09;101908.59;;;7.06;75.76
76424;BME280;65257;52.104;4.268;2023-02-01T04:12:35;101908.41;;;7.03;75.88
76424;BME280;65257;52.104;4.268;2023-02-01T04:15:00;101907.31;;;7.00;76.74
76424;BME280;65257;52.104;4.268;2023-02-01T04:17:26;101906.34;;;6.98;75.63
76424;BME280;65257;52.104;4.268;2023-02-01T04:19:51;101918.19;;;6.97;76.48
76424;BME280;65257;52.104;4.268;2023-02-01T04:22:16;101911.44;;;6.98;76.36
76424;BME280;65257;52.104;4.268;2023-02-01T04:24:42;101906.53;;;6.87;77.35
76424;BME280;65257;52.104;4.268;2023-02-01T04:27:07;101925.09;;;6.86;76.91
76424;BME280;65257;52.104;4.268;2023-02-01T04:29:33;101926.06;;;6.88;77.33
76424;BME280;65257;52.104;4.268;2023-02-01T04:31:58;101932.50;;;6.83;77.64
76424;BME280;65257;52.104;4.268;2023-02-01T04:34:23;101933.53;;;6.85;77.42
76424;BME280;65257;52.104;4.268;2023-02-01T04:36:50;101923.34;;;6.85;76.72
76424;BME280;65257;52.104;4.268;2023-02-01T04:39:15;101924.88;;;6.83;77.34
76424;BME280;65257;52.104;4.268;2023-02-01T04:41:41;101906.31;;;6.84;76.81
76424;BME280;65257;52.104;4.268;2023-02-01T04:44:13;101913.63;;;6.80;76.91
76424;BME280;65257;52.104;4.268;2023-02-01T04:46:39;101910.75;;;6.75;77.38
76424;BME280;65257;52.104;4.268;2023-02-01T04:49:04;101901.00;;;6.81;77.75
76424;BME280;65257;52.104;4.268;2023-02-01T04:51:30;101888.09;;;6.78;77.45
76424;BME280;65257;52.104;4.268;2023-02-01T04:53:55;101883.59;;;6.74;77.00
76424;BME280;65257;52.104;4.268;2023-02-01T04:56:21;101902.56;;;6.79;76.75
76424;BME280;65257;52.104;4.268;2023-02-01T04:58:47;101903.13;;;6.75;76.81
76424;BME280;65257;52.104;4.268;2023-02-01T05:01:12;101893.84;;;6.76;77.82
76424;BME280;65257;52.104;4.268;2023-02-01T05:03:37;101898.63;;;6.71;77.17
76424;BME280;65257;52.104;4.268;2023-02-01T05:06:03;101903.72;;;6.71;77.19
76424;BME280;65257;52.104;4.268;2023-02-01T05:08:30;101919.75;;;6.70;76.85
76424;BME280;65257;52.104;4.268;2023-02-01T05:10:56;101914.31;;;6.77;77.08
76424;BME280;65257;52.104;4.268;2023-02-01T05:13:22;101917.41;;;6.73;77.71
76424;BME280;65257;52.104;4.268;2023-02-01T05:16:06;101919.19;;;6.74;77.91
76424;BME280;65257;52.104;4.268;2023-02-01T05:18:31;101917.63;;;6.76;77.38
76424;BME280;65257;52.104;4.268;2023-02-01T05:20:57;101925.34;;;6.78;77.53
76424;BME280;65257;52.104;4.268;2023-02-01T05:23:22;101925.16;;;6.75;78.06
76424;BME280;65257;52.104;4.268;2023-02-01T05:25:47;101928.00;;;6.79;77.46
76424;BME280;65257;52.104;4.268;2023-02-01T05:28:13;101928.22;;;6.82;77.68
76424;BME280;65257;52.104;4.268;2023-02-01T05:30:38;101913.72;;;6.81;77.94
76424;BME280;65257;52.104;4.268;2023-02-01T05:33:04;101921.94;;;6.77;77.95
76424;BME280;65257;52.104;4.268;2023-02-01T05:35:30;101914.19;;;6.76;78.48
76424;BME280;65257;52.104;4.268;2023-02-01T05:37:55;101925.03;;;6.73;79.18
76424;BME280;65257;52.104;4.268;2023-02-01T05:40:21;101915.34;;;6.68;79.05
76424;BME280;65257;52.104;4.268;2023-02-01T05:42:46;101904.47;;;6.70;78.79
76424;BME280;65257;52.104;4.268;2023-02-01T05:45:12;101911.94;;;6.67;79.52
76424;BME280;65257;52.104;4.268;2023-02-01T05:47:37;101921.31;;;6.68;79.83
76424;BME280;65257;52.104;4.268;2023-02-01T05:50:04;101918.97;;;6.71;79.20
76424;BME280;65257;52.104;4.268;2023-02-01T05:52:29;101925.84;;;6.72;79.40
76424;BME280;65257;52.104;4.268;2023-02-01T05:54:55;101927.38;;;6.70;79.56
76424;BME280;65257;52.104;4.268;2023-02-01T05:57:20;101924.28;;;6.74;79.38
76424;BME280;65257;52.104;4.268;2023-02-01T05:59:46;101923.16;;;6.71;79.12
76424;BME280;65257;52.104;4.268;2023-02-01T06:02:12;101944.63;;;6.74;78.88
76424;BME280;65257;52.104;4.268;2023-02-01T06:04:38;101932.97;;;6.78;79.11
76424;BME280;65257;52.104;4.268;2023-02-01T06:07:05;101921.81;;;6.76;79.17
76424;BME280;65257;52.104;4.268;2023-02-01T06:09:33;101936.41;;;6.78;78.91
76424;BME280;65257;52.104;4.268;2023-02-01T06:11:58;101928.22;;;6.82;78.87
76424;BME280;65257;52.104;4.268;2023-02-01T06:14:24;101931.75;;;6.84;78.69
76424;BME280;65257;52.104;4.268;2023-02-01T06:16:49;101930.38;;;6.89;77.74
76424;BME280;65257;52.104;4.268;2023-02-01T06:19:15;101928.59;;;6.88;78.26
76424;BME280;65257;52.104;4.268;2023-02-01T06:21:40;101931.28;;;6.90;78.53
76424;BME280;65257;52.104;4.268;2023-02-01T06:24:06;101945.66;;;6.89;77.97
76424;BME280;65257;52.104;4.268;2023-02-01T06:26:31;101908.25;;;6.88;78.22
76424;BME280;65257;52.104;4.268;2023-02-01T06:28:58;101936.81;;;6.84;77.70
76424;BME280;65257;52.104;4.268;2023-02-01T06:31:23;101931.75;;;6.84;77.61
76424;BME280;65257;52.104;4.268;2023-02-01T06:33:50;101931.75;;;6.84;77.60
76424;BME280;65257;52.104;4.268;2023-02-01T06:36:16;101927.53;;;6.85;78.39
76424;BME280;65257;52.104;4.268;2023-02-01T06:38:43;101933.53;;;6.85;78.00
76424;BME280;65257;52.104;4.268;2023-02-01T06:41:09;101925.88;;;6.85;78.36
76424;BME280;65257;52.104;4.268;2023-02-01T06:43:34;101937.41;;;6.80;78.30
76424;BME280;65257;52.104;4.268;2023-02-01T06:46:05;101933.31;;;6.82;78.36
76424;BME280;65257;52.104;4.268;2023-02-01T06:48:31;101930.19;;;6.86;78.14
76424;BME280;65257;52.104;4.268;2023-02-01T06:50:57;101945.56;;;6.88;78.43
76424;BME280;65257;52.104;4.268;2023-02-01T06:53:23;101935.25;;;6.86;78.33
76424;BME280;65257;52.104;4.268;2023-02-01T06:55:56;101927.75;;;6.88;78.51
76424;BME280;65257;52.104;4.268;2023-02-01T06:58:22;101926.88;;;6.87;78.48
76424;BME280;65257;52.104;4.268;2023-02-01T07:00:48;101920.97;;;6.88;77.79
76424;BME280;65257;52.104;4.268;2023-02-01T07:03:13;101926.88;;;6.87;78.36
76424;BME280;65257;52.104;4.268;2023-02-01T07:05:39;101926.88;;;6.87;78.41
76424;BME280;65257;52.104;4.268;2023-02-01T07:08:04;101938.78;;;6.88;77.96
76424;BME280;65257;52.104;4.268;2023-02-01T07:10:29;101943.00;;;6.88;79.02
76424;BME280;65257;52.104;4.268;2023-02-01T07:12:58;101932.72;;;6.86;78.63
76424;BME280;65257;52.104;4.268;2023-02-01T07:15:23;101937.03;;;6.87;79.04
76424;BME280;65257;52.104;4.268;2023-02-01T07:17:49;101935.25;;;6.86;78.63
76424;BME280;65257;52.104;4.268;2023-02-01T07:20:15;101945.88;;;6.92;78.57
76424;BME280;65257;52.104;4.268;2023-02-01T07:22:41;101940.78;;;6.92;78.63
76424;BME280;65257;52.104;4.268;2023-02-01T07:25:06;101949.38;;;6.94;78.80
76424;BME280;65257;52.104;4.268;2023-02-01T07:27:36;101942.34;;;6.90;78.04
76424;BME280;65257;52.104;4.268;2023-02-01T07:30:02;101949.38;;;6.94;78.65
76424;BME280;65257;52.104;4.268;2023-02-01T07:32:28;101945.88;;;6.92;78.01
76424;BME280;65257;52.104;4.268;2023-02-01T07:34:54;101954.94;;;6.89;78.19
76424;BME280;65257;52.104;4.268;2023-02-01T07:37:19;101938.31;;;6.94;78.57
76424;BME280;65257;52.104;4.268;2023-02-01T07:39:45;101969.72;;;6.94;78.26
76424;BME280;65257;52.104;4.268;2023-02-01T07:42:10;101962.69;;;6.90;78.07
76424;BME280;65257;52.104;4.268;2023-02-01T07:44:35;101983.03;;;6.90;78.53
76424;BME280;65257;52.104;4.268;2023-02-01T07:47:01;101978.63;;;6.88;78.94
76424;BME280;65257;52.104;4.268;2023-02-01T07:49:26;101984.38;;;6.85;78.91
76424;BME280;65257;52.104;4.268;2023-02-01T07:51:51;101983.19;;;6.80;79.49
76424;BME280;65257;52.104;4.268;2023-02-01T07:54:17;101981.72;;;6.84;79.72
76424;BME280;65257;52.104;4.268;2023-02-01T07:56:42;101979.31;;;6.85;78.83
76424;BME280;65257;52.104;4.268;2023-02-01T07:59:08;101968.53;;;6.89;79.35
76424;BME280;65257;52.104;4.268;2023-02-01T08:01:33;101976.16;;;6.89;78.56
76424;BME280;65257;52.104;4.268;2023-02-01T08:04:01;101977.75;;;6.87;79.60
76424;BME280;65257;52.104;4.268;2023-02-01T08:06:33;101976.38;;;6.92;78.75
76424;BME280;65257;52.104;4.268;2023-02-01T08:08:59;101969.28;;;7.00;79.03
76424;BME280;65257;52.104;4.268;2023-02-01T08:11:25;101977.19;;;7.05;78.06
76424;BME280;65257;52.104;4.268;2023-02-01T08:13:51;101970.75;;;7.10;78.72
76424;BME280;65257;52.104;4.268;2023-02-01T08:16:19;101968.41;;;7.13;78.37
76424;BME280;65257;52.104;4.268;2023-02-01T08:18:45;101955.91;;;7.16;78.72
76424;BME280;65257;52.104;4.268;2023-02-01T08:21:16;101947.16;;;7.37;78.42
76424;BME280;65257;52.104;4.268;2023-02-01T08:23:42;101942.06;;;7.37;77.38
76424;BME280;65257;52.104;4.268;2023-02-01T08:26:17;101935.66;;;7.30;77.95
76424;BME280;65257;52.104;4.268;2023-02-01T08:28:47;101943.56;;;7.22;77.69
76424;BME280;65257;52.104;4.268;2023-02-01T08:31:15;101936.94;;;7.24;77.82
76424;BME280;65257;52.104;4.268;2023-02-01T08:33:41;101955.72;;;7.26;77.97
76424;BME280;65257;52.104;4.268;2023-02-01T08:36:09;101965.31;;;7.30;77.74
76424;BME280;65257;52.104;4.268;2023-02-01T08:38:36;101946.31;;;7.25;78.12
76424;BME280;65257;52.104;4.268;2023-02-01T08:41:12;101962.91;;;7.31;78.10
76424;BME280;65257;52.104;4.268;2023-02-01T08:43:38;101952.81;;;7.33;78.01
76424;BME280;65257;52.104;4.268;2023-02-01T08:46:05;101939.31;;;7.34;77.04
76424;BME280;65257;52.104;4.268;2023-02-01T08:48:31;101937.16;;;7.53;76.58
76424;BME280;65257;52.104;4.268;2023-02-01T08:50:57;101935.09;;;7.74;76.44
76424;BME280;65257;52.104;4.268;2023-02-01T08:53:22;101933.63;;;7.90;75.95
76424;BME280;65257;52.104;4.268;2023-02-01T08:55:48;101915.59;;;7.87;75.40
76424;BME280;65257;52.104;4.268;2023-02-01T08:58:14;101921.88;;;7.92;75.03
76424;BME280;65257;52.104;4.268;2023-02-01T09:00:40;101915.81;;;7.90;75.22
76424;BME280;65257;52.104;4.268;2023-02-01T09:03:07;101919.31;;;7.92;75.61
76424;BME280;65257;52.104;4.268;2023-02-01T09:05:34;101930.78;;;7.86;75.42
76424;BME280;65257;52.104;4.268;2023-02-01T09:08:00;101925.41;;;7.68;76.02
76424;BME280;65257;52.104;4.268;2023-02-01T09:10:25;101932.66;;;7.62;75.79
76424;BME280;65257;52.104;4.268;2023-02-01T09:12:51;101924.41;;;7.53;76.16
76424;BME280;65257;52.104;4.268;2023-02-01T09:15:17;101915.91;;;7.39;76.78
76424;BME280;65257;52.104;4.268;2023-02-01T09:17:42;101916.78;;;7.40;77.30
76424;BME280;65257;52.104;4.268;2023-02-01T09:20:09;101915.03;;;7.39;76.94
76424;BME280;65257;52.104;4.268;2023-02-01T09:22:34;101919.63;;;7.44;76.97
76424;BME280;65257;52.104;4.268;2023-02-01T09:24:59;101936.09;;;7.49;76.07
76424;BME280;65257;52.104;4.268;2023-02-01T09:27:25;101910.91;;;7.54;75.87
76424;BME280;65257;52.104;4.268;2023-02-01T09:29:50;101923.66;;;7.67;75.55
76424;BME280;65257;52.104;4.268;2023-02-01T09:32:22;101937.75;;;7.75;74.94
76424;BME280;65257;52.104;4.268;2023-02-01T09:34:49;101924.63;;;7.69;75.47
76424;BME280;65257;52.104;4.268;2023-02-01T09:37:14;101930.00;;;7.61;75.09
76424;BME280;65257;52.104;4.268;2023-02-01T09:39:40;101940.59;;;7.53;75.49
76424;BME280;65257;52.104;4.268;2023-02-01T09:47:51;101928.53;;;7.38;76.21
76424;BME280;65257;52.104;4.268;2023-02-01T09:50:33;101940.69;;;7.42;76.62
76424;BME280;65257;52.104;4.268;2023-02-01T09:55:49;101943.81;;;7.38;76.55
76424;BME280;65257;52.104;4.268;2023-02-01T09:58:32;101940.28;;;7.36;77.13
76424;BME280;65257;52.104;4.268;2023-02-01T10:01:00;101943.50;;;7.33;77.58
76424;BME280;65257;52.104;4.268;2023-02-01T10:03:34;101936.97;;;7.37;77.54
76424;BME280;65257;52.104;4.268;2023-02-01T10:22:01;101941.38;;;7.66;76.97
76424;BME280;65257;52.104;4.268;2023-02-01T10:24:47;101943.41;;;7.58;76.98
76424;BME280;65257;52.104;4.268;2023-02-01T10:27:35;101946.94;;;7.60;76.84
76424;BME280;65257;52.104;4.268;2023-02-01T10:30:21;101944.91;;;7.68;76.94
76424;BME280;65257;52.104;4.268;2023-02-01T10:32:49;101950.19;;;7.71;76.34
76424;BME280;65257;52.104;4.268;2023-02-01T10:35:21;101935.78;;;7.71;76.99
76424;BME280;65257;52.104;4.268;2023-02-01T10:37:48;101944.41;;;7.73;76.23
76424;BME280;65257;52.104;4.268;2023-02-01T10:40:20;101945.78;;;7.68;76.53
76424;BME280;65257;52.104;4.268;2023-02-01T10:42:47;101939.03;;;7.82;76.49
76424;BME280;65257;52.104;4.268;2023-02-01T10:45:17;101930.47;;;7.94;75.89
76424;BME280;65257;52.104;4.268;2023-02-01T10:47:44;101933.22;;;7.97;76.05
76424;BME280;65257;52.104;4.268;2023-02-01T10:53:04;101928.16;;;7.84;75.52
76424;BME280;65257;52.104;4.268;2023-02-01T10:55:35;101941.50;;;7.80;75.66
76424;BME280;65257;52.104;4.268;2023-02-01T10:58:04;101930.91;;;7.74;75.66
76424;BME280;65257;52.104;4.268;2023-02-01T11:00:42;101917.97;;;7.71;75.68
76424;BME280;65257;52.104;4.268;2023-02-01T11:03:34;101924.91;;;7.74;76.30
76424;BME280;65257;52.104;4.268;2023-02-01T11:06:09;101926.69;;;7.75;75.67
76424;BME280;65257;52.104;4.268;2023-02-01T11:08:43;101911.69;;;7.66;75.66
76424;BME280;65257;52.104;4.268;2023-02-01T11:11:10;101915.53;;;7.73;76.43
76424;BME280;65257;52.104;4.268;2023-02-01T11:13:38;101918.94;;;7.73;75.49
76424;BME280;65257;52.104;4.268;2023-02-01T11:16:05;101908.56;;;7.70;76.14
76424;BME280;65257;52.104;4.268;2023-02-01T11:18:35;101916.59;;;7.76;75.52
76424;BME280;65257;52.104;4.268;2023-02-01T11:21:02;101917.56;;;7.78;75.56
76424;BME280;65257;52.104;4.268;2023-02-01T11:23:30;101918.94;;;7.73;75.37
76424;BME280;65257;52.104;4.268;2023-02-01T11:26:24;101924.91;;;7.74;75.20
76424;BME280;65257;52.104;4.268;2023-02-01T11:28:58;101936.19;;;7.77;75.79
76424;BME280;65257;52.104;4.268;2023-02-01T11:31:27;101936.19;;;7.77;76.24
76424;BME280;65257;52.104;4.268;2023-02-01T11:33:57;101931.78;;;7.75;75.96
76424;BME280;65257;52.104;4.268;2023-02-01T11:36:29;101922.47;;;7.75;76.28
76424;BME280;65257;52.104;4.268;2023-02-01T11:42:05;101924.44;;;7.79;75.76
76424;BME280;65257;52.104;4.268;2023-02-01T11:47:25;101931.47;;;7.83;76.23
76424;BME280;65257;52.104;4.268;2023-02-01T11:50:02;101919.03;;;7.75;76.14
76424;BME280;65257;52.104;4.268;2023-02-01T11:58:50;101906.81;;;7.69;76.57
76424;BME280;65257;52.104;4.268;2023-02-01T12:01:34;101936.38;;;7.67;76.85
76424;BME280;65257;52.104;4.268;2023-02-01T12:09:15;101923.44;;;7.90;76.45
76424;BME280;65257;52.104;4.268;2023-02-01T12:18:06;101909.22;;;7.94;75.56
76424;BME280;65257;52.104;4.268;2023-02-01T12:20:58;101896.00;;;7.86;75.51
76424;BME280;65257;52.104;4.268;2023-02-01T12:23:50;101901.09;;;7.86;75.69
76424;BME280;65257;52.104;4.268;2023-02-01T12:31:36;101892.97;;;8.19;75.02
76424;BME280;65257;52.104;4.268;2023-02-01T12:37:23;101907.13;;;8.14;74.93
76424;BME280;65257;52.104;4.268;2023-02-01T12:42:55;101895.06;;;8.12;75.95
76424;BME280;65257;52.104;4.268;2023-02-01T12:45:31;101902.63;;;8.10;75.76
76424;BME280;65257;52.104;4.268;2023-02-01T12:50:43;101918.13;;;8.13;75.77
76424;BME280;65257;52.104;4.268;2023-02-01T12:53:18;101889.97;;;8.12;75.20
76424;BME280;65257;52.104;4.268;2023-02-01T12:55:58;101907.13;;;8.01;75.41
76424;BME280;65257;52.104;4.268;2023-02-01T12:58:42;101899.25;;;8.38;75.20
76424;BME280;65257;52.104;4.268;2023-02-01T13:01:22;101883.66;;;8.61;75.32
76424;BME280;65257;52.104;4.268;2023-02-01T13:06:44;101888.22;;;8.52;74.01
76424;BME280;65257;52.104;4.268;2023-02-01T13:09:25;101898.47;;;8.39;74.39
76424;BME280;65257;52.104;4.268;2023-02-01T13:11:54;101894.34;;;8.41;74.35
76424;BME280;65257;52.104;4.268;2023-02-01T13:15:03;101898.28;;;8.36;74.64
76424;BME280;65257;52.104;4.268;2023-02-01T13:17:16;101898.78;;;8.30;75.30
76424;BME280;65257;52.104;4.268;2023-02-01T13:19:57;101898.78;;;8.30;75.57
76424;BME280;65257;52.104;4.268;2023-02-01T13:22:31;101883.94;;;8.25;75.42
76424;BME280;65257;52.104;4.268;2023-02-01T13:25:04;101894.16;;;8.25;75.32
76424;BME280;65257;52.104;4.268;2023-02-01T13:27:36;101904.56;;;8.14;75.93
76424;BME280;65257;52.104;4.268;2023-02-01T13:40:54;101899.34;;;7.98;77.66
76424;BME280;65257;52.104;4.268;2023-02-01T13:43:28;101903.25;;;7.93;77.91
76424;BME280;65257;52.104;4.268;2023-02-01T13:45:56;101900.78;;;7.95;78.31
76424;BME280;65257;52.104;4.268;2023-02-01T13:48:29;101900.09;;;7.97;78.80
76424;BME280;65257;52.104;4.268;2023-02-01T13:50:59;101896.47;;;7.94;78.93
76424;BME280;65257;52.104;4.268;2023-02-01T13:53:30;101903.34;;;7.95;78.96
76424;BME280;65257;52.104;4.268;2023-02-01T13:56:00;101900.31;;;8.00;78.95
76424;BME280;65257;52.104;4.268;2023-02-01T14:03:49;101898.72;;;8.02;79.27
76424;BME280;65257;52.104;4.268;2023-02-01T14:11:47;101895.56;;;8.06;79.34
76424;BME280;65257;52.104;4.268;2023-02-01T14:19:29;101899.13;;;8.08;79.95
76424;BME280;65257;52.104;4.268;2023-02-01T14:24:50;101897.63;;;8.12;80.08
76424;BME280;65257;52.104;4.268;2023-02-01T14:27:21;101898.59;;;8.14;79.75
76424;BME280;65257;52.104;4.268;2023-02-01T14:29:59;101906.22;;;8.14;80.22
76424;BME280;65257;52.104;4.268;2023-02-01T14:32:37;101901.06;;;8.12;79.63
76424;BME280;65257;52.104;4.268;2023-02-01T14:35:25;101897.53;;;8.10;79.57
76424;BME280;65257;52.104;4.268;2023-02-01T14:37:53;101894.56;;;8.17;79.20
76424;BME280;65257;52.104;4.268;2023-02-01T14:40:26;101903.41;;;8.09;79.74
76424;BME280;65257;52.104;4.268;2023-02-01T14:42:52;101902.63;;;8.10;79.33
76424;BME280;65257;52.104;4.268;2023-02-01T14:47:55;101909.66;;;8.14;79.24
76424;BME280;65257;52.104;4.268;2023-02-01T14:50:41;101905.19;;;8.10;79.37
76424;BME280;65257;52.104;4.268;2023-02-01T14:55:44;101907.91;;;8.13;79.30
76424;BME280;65257;52.104;4.268;2023-02-01T15:01:01;101912.81;;;8.10;79.25
76424;BME280;65257;52.104;4.268;2023-02-01T15:05:59;101907.34;;;8.04;79.57
76424;BME280;65257;52.104;4.268;2023-02-01T15:08:33;101910.09;;;8.07;79.50
76424;BME280;65257;52.104;4.268;2023-02-01T15:11:02;101910.84;;;8.06;79.53
76424;BME280;65257;52.104;4.268;2023-02-01T15:13:28;101912.63;;;8.07;79.10
76424;BME280;65257;52.104;4.268;2023-02-01T15:16:12;101922.81;;;8.07;79.34
76424;BME280;65257;52.104;4.268;2023-02-01T15:18:39;101912.72;;;8.09;79.43
76424;BME280;65257;52.104;4.268;2023-02-01T15:21:06;101912.44;;;8.04;79.38
76424;BME280;65257;52.104;4.268;2023-02-01T15:23:32;101924.75;;;8.11;79.60